sensor_id;sensor_type;location;lat;lon;timestamp;pressure;altitude;pressure_sealevel;temperature;humidity
3668;BME280;24099;47.102;15.440;2023-02-15T00:01:40;98789.69;;;-0.03;100.00
3668;BME280;24099;47.102;15.440;2023-02-15T00:04:12;98790.59;;;-0.04;100.00
3668;BME280;24099;47.102;15.440;2023-02-15T00:06:40;98787.94;;;-0.02;100.00
3668;BME280;24099;47.102;15.440;2023-02-15T00:09:11;98780.81;;;0.02;100.00
3668;BME280;24099;47.102;15.440;2023-02-15T00:11:39;98779.16;;;0.00;100.00
3668;BME280;24099;47.102;15.440;2023-02-15T00:14:08;98782.50;;;0.03;100.00
3668;BME280;24099;47.102;15.440;2023-02-15T00:16:36;98777.78;;;0.11;100.00
3668;BME280;24099;47.102;15.440;2023-02-15T00:19:06;98781.22;;;0.11;100.00
3668;BME280;24099;47.102;15.440;2023-02-15T00:21:35;98783.13;;;0.08;100.00
3668;BME280;24099;47.102;15.440;2023-02-15T00:24:05;98784.56;;;0.13;100.00
3668;BME280;24099;47.102;15.440;2023-02-15T00:26:34;98785.25;;;0.17;100.00
3668;BME280;24099;47.102;15.440;2023-02-15T00:29:02;98776.72;;;0.15;100.00
3668;BME280;24099;47.102;15.440;2023-02-15T00:31:31;98786.25;;;0.14;100.00
3668;BME280;24099;47.102;15.440;2023-02-15T00:34:02;98784.41;;;0.16;100.00
3668;BME280;24099;47.102;15.440;2023-02-15T00:36:32;98786.03;;;0.19;100.00
3668;BME280;24099;47.102;15.440;2023-02-15T00:39:00;98781.91;;;0.15;100.00
3668;BME280;24099;47.102;15.440;2023-02-15T00:41:29;98777.34;;;0.20;100.00
3668;BME280;24099;47.102;15.440;2023-02-15T00:43:57;98779.16;;;0.18;100.00
3668;BME280;24099;47.102;15.440;2023-02-15T00:46:27;98781.56;;;0.21;100.00
3668;BME280;24099;47.102;15.440;2023-02-15T00:48:55;98783.25;;;0.22;100.00
3668;BME280;24099;47.102;15.440;2023-02-15T00:51:23;98782.41;;;0.21;100.00
3668;BME280;24099;47.102;15.440;2023-02-15T00:54:00;98786.44;;;0.27;100.00
3668;BME280;24099;47.102;15.440;2023-02-15T00:56:29;98782.19;;;0.26;100.00
3668;BME280;24099;47.102;15.440;2023-02-15T00:58:57;98777.78;;;0.28;100.00
3668;BME280;24099;47.102;15.440;2023-02-15T01:01:25;98776.50;;;0.52;100.00
3668;BME280;24099;47.102;15.440;2023-02-15T01:03:53;98778.19;;;0.53;100.00
3668;BME280;24099;47.102;15.440;2023-02-15T01:06:21;98769.28;;;0.42;100.00
3668;BME280;24099;47.102;15.440;2023-02-15T01:08:49;98761.44;;;0.43;100.00
3668;BME280;24099;47.102;15.440;2023-02-15T01:11:19;98758.09;;;0.41;100.00
3668;BME280;24099;47.102;15.440;2023-02-15T01:13:51;98757.16;;;0.42;100.00
3668;BME280;24099;47.102;15.440;2023-02-15T01:16:20;98758.34;;;0.37;100.00
3668;BME280;24099;47.102;15.440;2023-02-15T01:18:48;98751.41;;;0.37;100.00
3668;BME280;24099;47.102;15.440;2023-02-15T01:21:18;98755.00;;;0.34;100.00
3668;BME280;24099;47.102;15.440;2023-02-15T01:23:46;98746.25;;;0.37;100.00
3668;BME280;24099;47.102;15.440;2023-02-15T01:26:15;98746.72;;;0.44;100.00
3668;BME280;24099;47.102;15.440;2023-02-15T01:28:45;98752.91;;;0.41;100.00
3668;BME280;24099;47.102;15.440;2023-02-15T01:31:14;98744.41;;;0.39;100.00
3668;BME280;24099;47.102;15.440;2023-02-15T01:33:46;98744.41;;;0.39;100.00
3668;BME280;24099;47.102;15.440;2023-02-15T01:36:14;98748.63;;;0.40;100.00
3668;BME280;24099;47.102;15.440;2023-02-15T01:38:43;98736.28;;;0.45;100.00
3668;BME280;24099;47.102;15.440;2023-02-15T01:41:11;98732.03;;;0.44;100.00
3668;BME280;24099;47.102;15.440;2023-02-15T01:43:52;98731.19;;;0.44;100.00
3668;BME280;24099;47.102;15.440;2023-02-15T01:46:26;98727.78;;;0.43;100.00
3668;BME280;24099;47.102;15.440;2023-02-15T01:48:59;98728.69;;;0.42;100.00
3668;BME280;24099;47.102;15.440;2023-02-15T01:51:31;98719.16;;;0.43;100.00
3668;BME280;24099;47.102;15.440;2023-02-15T01:54:05;98717.25;;;0.46;100.00
3668;BME280;24099;47.102;15.440;2023-02-15T01:56:38;98716.25;;;0.49;100.00
3668;BME280;24099;47.102;15.440;2023-02-15T01:59:13;98721.50;;;0.47;100.00
3668;BME280;24099;47.102;15.440;2023-02-15T02:01:42;98713.81;;;0.46;100.00
3668;BME280;24099;47.102;15.440;2023-02-15T02:04:15;98706.88;;;0.46;100.00
3668;BME280;24099;47.102;15.440;2023-02-15T02:06:47;98697.53;;;0.44;100.00
3668;BME280;24099;47.102;15.440;2023-02-15T02:09:16;98692.28;;;0.45;100.00
3668;BME280;24099;47.102;15.440;2023-02-15T02:11:45;98687.84;;;0.47;100.00
3668;BME280;24099;47.102;15.440;2023-02-15T02:14:16;98681.06;;;0.45;100.00
3668;BME280;24099;47.102;15.440;2023-02-15T02:16:49;98685.09;;;0.50;100.00
3668;BME280;24099;47.102;15.440;2023-02-15T02:19:45;98694.78;;;0.47;100.00
3668;BME280;24099;47.102;15.440;2023-02-15T02:22:50;98686.25;;;0.45;100.00
3668;BME280;24099;47.102;15.440;2023-02-15T02:28:51;98675.72;;;0.48;100.00
3668;BME280;24099;47.102;15.440;2023-02-15T02:31:44;98679.00;;;0.51;100.00
3668;BME280;24099;47.102;15.440;2023-02-15T02:34:25;98680.91;;;0.48;100.00
3668;BME280;24099;47.102;15.440;2023-02-15T02:36:59;98672.75;;;0.55;100.00
3668;BME280;24099;47.102;15.440;2023-02-15T02:39:37;98674.75;;;0.66;100.00
3668;BME280;24099;47.102;15.440;2023-02-15T02:42:12;98669.91;;;0.60;100.00
3668;BME280;24099;47.102;15.440;2023-02-15T02:44:43;98678.59;;;0.59;100.00
3668;BME280;24099;47.102;15.440;2023-02-15T02:47:18;98668.41;;;0.56;100.00
3668;BME280;24099;47.102;15.440;2023-02-15T02:49:58;98667.72;;;0.52;100.00
3668;BME280;24099;47.102;15.440;2023-02-15T02:52:38;98663.06;;;0.59;100.00
3668;BME280;24099;47.102;15.440;2023-02-15T02:55:10;98662.38;;;0.55;100.00
3668;BME280;24099;47.102;15.440;2023-02-15T02:57:46;98659.72;;;0.57;100.00
3668;BME280;24099;47.102;15.440;2023-02-15T03:00:16;98662.53;;;0.52;100.00
3668;BME280;24099;47.102;15.440;2023-02-15T03:02:45;98650.66;;;0.48;100.00
3668;BME280;24099;47.102;15.440;2023-02-15T03:05:21;98653.78;;;0.55;100.00
3668;BME280;24099;47.102;15.440;2023-02-15T03:07:52;98652.84;;;0.56;100.00
3668;BME280;24099;47.102;15.440;2023-02-15T03:10:24;98654.53;;;0.57;100.00
3668;BME280;24099;47.102;15.440;2023-02-15T03:12:52;98658.03;;;0.56;100.00
3668;BME280;24099;47.102;15.440;2023-02-15T03:15:23;98647.69;;;0.56;100.00
3668;BME280;24099;47.102;15.440;2023-02-15T03:17:57;98652.03;;;0.55;100.00
3668;BME280;24099;47.102;15.440;2023-02-15T03:20:33;98657.19;;;0.55;100.00
3668;BME280;24099;47.102;15.440;2023-02-15T03:23:06;98648.50;;;0.56;100.00
3668;BME280;24099;47.102;15.440;2023-02-15T03:25:40;98656.28;;;0.56;100.00
3668;BME280;24099;47.102;15.440;2023-02-15T03:28:13;98657.03;;;0.58;100.00
3668;BME280;24099;47.102;15.440;2023-02-15T03:30:44;98657.03;;;0.58;100.00
3668;BME280;24099;47.102;15.440;2023-02-15T03:33:16;98660.56;;;0.57;100.00
3668;BME280;24099;47.102;15.440;2023-02-15T03:35:53;98655.38;;;0.57;100.00
3668;BME280;24099;47.102;15.440;2023-02-15T03:38:28;98653.69;;;0.56;100.00
3668;BME280;24099;47.102;15.440;2023-02-15T03:40:58;98652.69;;;0.59;100.00
3668;BME280;24099;47.102;15.440;2023-02-15T03:43:45;98656.78;;;0.63;100.00
3668;BME280;24099;47.102;15.440;2023-02-15T03:46:20;98656.00;;;0.61;100.00
3668;BME280;24099;47.102;15.440;2023-02-15T03:48:53;98653.69;;;0.56;100.00
3668;BME280;24099;47.102;15.440;2023-02-15T03:51:28;98654.44;;;0.58;100.00
3668;BME280;24099;47.102;15.440;2023-02-15T03:54:07;98650.94;;;0.59;100.00
3668;BME280;24099;47.102;15.440;2023-02-15T03:56:37;98660.28;;;0.62;100.00
3668;BME280;24099;47.102;15.440;2023-02-15T03:59:05;98656.97;;;0.60;100.00
3668;BME280;24099;47.102;15.440;2023-02-15T04:01:59;98653.69;;;0.56;100.00
3668;BME280;24099;47.102;15.440;2023-02-15T04:04:33;98651.03;;;0.58;100.00
3668;BME280;24099;47.102;15.440;2023-02-15T04:07:05;98654.38;;;0.60;100.00
3668;BME280;24099;47.102;15.440;2023-02-15T04:09:33;98652.50;;;0.62;100.00
3668;BME280;24099;47.102;15.440;2023-02-15T04:12:19;98644.16;;;0.57;100.00
3668;BME280;24099;47.102;15.440;2023-02-15T04:14:47;98651.19;;;0.55;100.00
3668;BME280;24099;47.102;15.440;2023-02-15T04:17:32;98644.25;;;0.55;100.00
3668;BME280;24099;47.102;15.440;2023-02-15T04:20:03;98648.34;;;0.59;100.00
3668;BME280;24099;47.102;15.440;2023-02-15T04:22:50;98644.31;;;0.69;100.00
3668;BME280;24099;47.102;15.440;2023-02-15T04:25:35;98648.91;;;0.64;100.00
3668;BME280;24099;47.102;15.440;2023-02-15T04:28:03;98648.84;;;0.66;100.00
3668;BME280;24099;47.102;15.440;2023-02-15T04:30:30;98653.19;;;0.65;100.00
3668;BME280;24099;47.102;15.440;2023-02-15T04:32:58;98651.50;;;0.64;100.00
3668;BME280;24099;47.102;15.440;2023-02-15T04:35:25;98646.69;;;0.58;100.00
3668;BME280;24099;47.102;15.440;2023-02-15T04:37:55;98645.00;;;0.57;100.00
3668;BME280;24099;47.102;15.440;2023-02-15T04:40:24;98650.75;;;0.62;100.00
3668;BME280;24099;47.102;15.440;2023-02-15T04:42:51;98652.41;;;0.63;100.00
3668;BME280;24099;47.102;15.440;2023-02-15T04:45:19;98643.31;;;0.72;100.00
3668;BME280;24099;47.102;15.440;2023-02-15T04:47:47;98647.00;;;0.68;100.00
3668;BME280;24099;47.102;15.440;2023-02-15T04:50:15;98637.72;;;0.64;100.00
3668;BME280;24099;47.102;15.440;2023-02-15T04:52:43;98638.56;;;0.64;100.00
3668;BME280;24099;47.102;15.440;2023-02-15T04:55:12;98641.31;;;0.61;100.00
3668;BME280;24099;47.102;15.440;2023-02-15T04:57:40;98640.38;;;0.62;100.00
3668;BME280;24099;47.102;15.440;2023-02-15T05:00:08;98636.81;;;0.65;100.00
3668;BME280;24099;47.102;15.440;2023-02-15T05:02:36;98642.91;;;0.64;100.00
3668;BME280;24099;47.102;15.440;2023-02-15T05:05:04;98636.81;;;0.65;100.00
3668;BME280;24099;47.102;15.440;2023-02-15T05:07:32;98635.97;;;0.64;100.00
3668;BME280;24099;47.102;15.440;2023-02-15T05:10:00;98641.16;;;0.64;100.00
3668;BME280;24099;47.102;15.440;2023-02-15T05:12:28;98630.63;;;0.67;100.00
3668;BME280;24099;47.102;15.440;2023-02-15T05:15:00;98635.78;;;0.83;100.00
3668;BME280;24099;47.102;15.440;2023-02-15T05:17:29;98636.19;;;0.91;100.00
3668;BME280;24099;47.102;15.440;2023-02-15T05:19:59;98629.34;;;1.20;100.00
3668;BME280;24099;47.102;15.440;2023-02-15T05:22:26;98631.53;;;0.82;100.00
3668;BME280;24099;47.102;15.440;2023-02-15T05:24:56;98630.91;;;1.09;100.00
3668;BME280;24099;47.102;15.440;2023-02-15T05:27:45;98625.50;;;1.27;100.00
3668;BME280;24099;47.102;15.440;2023-02-15T05:30:30;98620.38;;;1.12;100.00
3668;BME280;24099;47.102;15.440;2023-02-15T05:33:03;98618.16;;;0.90;100.00
3668;BME280;24099;47.102;15.440;2023-02-15T05:35:31;98613.22;;;0.85;100.00
3668;BME280;24099;47.102;15.440;2023-02-15T05:37:59;98616.63;;;0.86;100.00
3668;BME280;24099;47.102;15.440;2023-02-15T05:40:26;98612.38;;;0.85;100.00
3668;BME280;24099;47.102;15.440;2023-02-15T05:42:56;98607.34;;;0.82;100.00
3668;BME280;24099;47.102;15.440;2023-02-15T05:45:25;98609.13;;;0.81;100.00
3668;BME280;24099;47.102;15.440;2023-02-15T05:47:54;98608.88;;;0.86;100.00
3668;BME280;24099;47.102;15.440;2023-02-15T05:50:21;98600.63;;;0.79;100.00
3668;BME280;24099;47.102;15.440;2023-02-15T05:52:50;98606.81;;;0.77;100.00
3668;BME280;24099;47.102;15.440;2023-02-15T05:55:18;98607.72;;;0.76;100.00
3668;BME280;24099;47.102;15.440;2023-02-15T05:57:45;98606.81;;;0.77;100.00
3668;BME280;24099;47.102;15.440;2023-02-15T06:00:16;98598.28;;;0.75;100.00
3668;BME280;24099;47.102;15.440;2023-02-15T06:02:44;98606.06;;;0.75;100.00
3668;BME280;24099;47.102;15.440;2023-02-15T06:05:11;98605.22;;;0.74;100.00
3668;BME280;24099;47.102;15.440;2023-02-15T06:07:43;98604.47;;;0.72;100.00
3668;BME280;24099;47.102;15.440;2023-02-15T06:10:11;98605.28;;;0.73;100.00
3668;BME280;24099;47.102;15.440;2023-02-15T06:12:39;98602.78;;;0.71;100.00
3668;BME280;24099;47.102;15.440;2023-02-15T06:15:07;98609.19;;;0.95;100.00
3668;BME280;24099;47.102;15.440;2023-02-15T06:17:36;98609.19;;;0.95;100.00
3668;BME280;24099;47.102;15.440;2023-02-15T06:20:05;98611.97;;;0.92;100.00
3668;BME280;24099;47.102;15.440;2023-02-15T06:22:34;98613.28;;;0.84;100.00
3668;BME280;24099;47.102;15.440;2023-02-15T06:25:02;98616.88;;;0.81;100.00
3668;BME280;24099;47.102;15.440;2023-02-15T06:27:31;98617.72;;;0.82;100.00
3668;BME280;24099;47.102;15.440;2023-02-15T06:29:59;98621.22;;;0.81;100.00
3668;BME280;24099;47.102;15.440;2023-02-15T06:32:27;98628.16;;;0.80;100.00
3668;BME280;24099;47.102;15.440;2023-02-15T06:34:56;98619.59;;;0.80;100.00
3668;BME280;24099;47.102;15.440;2023-02-15T06:37:24;98624.78;;;0.80;100.00
3668;BME280;24099;47.102;15.440;2023-02-15T06:39:51;98626.53;;;0.79;100.00
3668;BME280;24099;47.102;15.440;2023-02-15T06:42:19;98629.75;;;0.83;100.00
3668;BME280;24099;47.102;15.440;2023-02-15T06:44:48;98632.19;;;0.86;100.00
3668;BME280;24099;47.102;15.440;2023-02-15T06:47:16;98631.69;;;0.95;100.00
3668;BME280;24099;47.102;15.440;2023-02-15T06:49:43;98639.47;;;0.95;100.00
3668;BME280;24099;47.102;15.440;2023-02-15T06:52:13;98630.78;;;0.96;100.00
3668;BME280;24099;47.102;15.440;2023-02-15T06:54:42;98630.94;;;0.93;100.00
3668;BME280;24099;47.102;15.440;2023-02-15T06:57:10;98629.25;;;0.92;100.00
3668;BME280;24099;47.102;15.440;2023-02-15T06:59:39;98630.94;;;0.93;100.00
3668;BME280;24099;47.102;15.440;2023-02-15T07:02:10;98622.25;;;0.94;100.00
3668;BME280;24099;47.102;15.440;2023-02-15T07:04:38;98617.88;;;0.94;100.00
3668;BME280;24099;47.102;15.440;2023-02-15T07:07:09;98618.66;;;0.96;100.00
3668;BME280;24099;47.102;15.440;2023-02-15T07:09:39;98617.72;;;0.97;100.00
3668;BME280;24099;47.102;15.440;2023-02-15T07:12:08;98612.63;;;0.96;100.00
3668;BME280;24099;47.102;15.440;2023-02-15T07:14:55;98620.22;;;0.99;100.00
3668;BME280;24099;47.102;15.440;2023-02-15T07:17:25;98613.84;;;1.04;100.00
3668;BME280;24099;47.102;15.440;2023-02-15T07:19:54;98612.84;;;1.07;100.00
3668;BME280;24099;47.102;15.440;2023-02-15T07:22:25;98606.56;;;1.11;100.00
3668;BME280;24099;47.102;15.440;2023-02-15T07:24:54;98602.13;;;1.13;100.00
3668;BME280;24099;47.102;15.440;2023-02-15T07:27:21;98609.72;;;1.16;100.00
3668;BME280;24099;47.102;15.440;2023-02-15T07:29:49;98611.31;;;1.19;100.00
3668;BME280;24099;47.102;15.440;2023-02-15T07:32:17;98600.94;;;1.19;100.00
3668;BME280;24099;47.102;15.440;2023-02-15T07:34:44;98601.22;;;1.14;100.00
3668;BME280;24099;47.102;15.440;2023-02-15T07:37:12;98602.72;;;1.18;100.00
3668;BME280;24099;47.102;15.440;2023-02-15T07:39:42;98599.00;;;1.22;100.00
3668;BME280;24099;47.102;15.440;2023-02-15T07:42:15;98591.69;;;1.29;100.00
3668;BME280;24099;47.102;15.440;2023-02-15T07:44:44;98594.97;;;1.32;100.00
3668;BME280;24099;47.102;15.440;2023-02-15T07:47:11;98590.34;;;1.37;100.00
3668;BME280;24099;47.102;15.440;2023-02-15T07:49:39;98586.72;;;1.40;100.00
3668;BME280;24099;47.102;15.440;2023-02-15T07:52:08;98587.53;;;1.41;100.00
3668;BME280;24099;47.102;15.440;2023-02-15T07:54:36;98583.31;;;1.68;100.00
3668;BME280;24099;47.102;15.440;2023-02-15T07:57:04;98576.44;;;1.38;100.00
3668;BME280;24099;47.102;15.440;2023-02-15T07:59:34;98580.81;;;1.38;100.00
3668;BME280;24099;47.102;15.440;2023-02-15T08:02:02;98582.34;;;1.41;100.00
3668;BME280;24099;47.102;15.440;2023-02-15T08:04:32;98584.13;;;1.40;100.00
3668;BME280;24099;47.102;15.440;2023-02-15T08:07:00;98583.19;;;1.41;100.00
3668;BME280;24099;47.102;15.440;2023-02-15T08:09:29;98581.81;;;1.50;100.00
3668;BME280;24099;47.102;15.440;2023-02-15T08:12:00;98584.34;;;1.51;100.00
3668;BME280;24099;47.102;15.440;2023-02-15T08:14:32;98578.13;;;1.54;100.00
3668;BME280;24099;47.102;15.440;2023-02-15T08:17:02;98570.00;;;1.60;100.00
3668;BME280;24099;47.102;15.440;2023-02-15T08:19:33;98574.13;;;1.62;100.00
3668;BME280;24099;47.102;15.440;2023-02-15T08:22:03;98574.03;;;1.64;100.00
3668;BME280;24099;47.102;15.440;2023-02-15T08:24:35;98570.34;;;1.68;100.00
3668;BME280;24099;47.102;15.440;2023-02-15T08:27:06;98570.16;;;1.71;100.00
3668;BME280;24099;47.102;15.440;2023-02-15T08:29:37;98571.66;;;1.89;100.00
3668;BME280;24099;47.102;15.440;2023-02-15T08:32:08;98570.34;;;1.82;100.00
3668;BME280;24099;47.102;15.440;2023-02-15T08:34:40;98566.47;;;1.89;100.00
3668;BME280;24099;47.102;15.440;2023-02-15T08:37:08;98563.69;;;1.92;100.00
3668;BME280;24099;47.102;15.440;2023-02-15T08:39:36;98564.59;;;1.91;100.00
3668;BME280;24099;47.102;15.440;2023-02-15T08:42:05;98570.81;;;1.89;100.00
3668;BME280;24099;47.102;15.440;2023-02-15T08:44:36;98573.13;;;1.93;100.00
3668;BME280;24099;47.102;15.440;2023-02-15T08:47:05;98575.56;;;1.96;100.00
3668;BME280;24099;47.102;15.440;2023-02-15T08:49:35;98571.47;;;1.92;100.00
3668;BME280;24099;47.102;15.440;2023-02-15T08:52:03;98572.13;;;1.96;100.00
3668;BME280;24099;47.102;15.440;2023-02-15T08:54:36;98572.66;;;1.87;100.00
3668;BME280;24099;47.102;15.440;2023-02-15T08:57:05;98567.00;;;1.80;100.00
3668;BME280;24099;47.102;15.440;2023-02-15T08:59:34;98565.25;;;1.95;100.00
3668;BME280;24099;47.102;15.440;2023-02-15T09:02:02;98562.47;;;1.84;100.00
3668;BME280;24099;47.102;15.440;2023-02-15T09:04:30;98568.59;;;1.97;100.00
3668;BME280;24099;47.102;15.440;2023-02-15T09:06:58;98563.56;;;2.08;100.00
3668;BME280;24099;47.102;15.440;2023-02-15T09:09:27;98569.22;;;2.15;100.00
3668;BME280;24099;47.102;15.440;2023-02-15T09:11:56;98560.59;;;2.14;100.00
3668;BME280;24099;47.102;15.440;2023-02-15T09:14:25;98562.91;;;2.19;100.00
3668;BME280;24099;47.102;15.440;2023-02-15T09:16:54;98564.28;;;2.24;100.00
3668;BME280;24099;47.102;15.440;2023-02-15T09:19:24;98558.63;;;2.32;100.00
3668;BME280;24099;47.102;15.440;2023-02-15T09:21:54;98557.50;;;2.36;100.00
3668;BME280;24099;47.102;15.440;2023-02-15T09:24:22;98556.16;;;2.43;100.00
3668;BME280;24099;47.102;15.440;2023-02-15T09:26:49;98553.88;;;2.38;100.00
3668;BME280;24099;47.102;15.440;2023-02-15T09:29:18;98556.34;;;2.54;100.00
3668;BME280;24099;47.102;15.440;2023-02-15T09:31:49;98554.41;;;2.70;100.00
3668;BME280;24099;47.102;15.440;2023-02-15T09:34:21;98550.16;;;2.69;100.00
3668;BME280;24099;47.102;15.440;2023-02-15T09:36:52;98544.22;;;2.67;100.00
3668;BME280;24099;47.102;15.440;2023-02-15T09:39:21;98538.09;;;2.81;100.00
3668;BME280;24099;47.102;15.440;2023-02-15T09:42:13;98539.84;;;3.20;100.00
3668;BME280;24099;47.102;15.440;2023-02-15T09:50:39;98536.09;;;3.11;100.00
3668;BME280;24099;47.102;15.440;2023-02-15T09:53:33;98534.63;;;3.07;100.00
3668;BME280;24099;47.102;15.440;2023-02-15T09:56:09;98534.88;;;3.17;100.00
3668;BME280;24099;47.102;15.440;2023-02-15T09:58:51;98529.47;;;3.45;100.00
3668;BME280;24099;47.102;15.440;2023-02-15T10:01:30;98528.06;;;4.03;100.00
3668;BME280;24099;47.102;15.440;2023-02-15T10:04:23;98524.50;;;4.17;100.00
3668;BME280;24099;47.102;15.440;2023-02-15T10:07:05;98520.50;;;3.88;100.00
3668;BME280;24099;47.102;15.440;2023-02-15T10:09:48;98520.34;;;4.02;100.00
3668;BME280;24099;47.102;15.440;2023-02-15T10:12:38;98521.78;;;4.19;100.00
3668;BME280;24099;47.102;15.440;2023-02-15T10:15:20;98513.44;;;3.64;100.00
3668;BME280;24099;47.102;15.440;2023-02-15T10:18:16;98515.38;;;3.86;100.00
3668;BME280;24099;47.102;15.440;2023-02-15T10:20:55;98508.84;;;3.68;100.00
3668;BME280;24099;47.102;15.440;2023-02-15T10:23:41;98506.00;;;3.96;100.00
3668;BME280;24099;47.102;15.440;2023-02-15T10:26:17;98501.69;;;4.08;100.00
3668;BME280;24099;47.102;15.440;2023-02-15T10:28:49;98503.84;;;4.50;100.00
3668;BME280;24099;47.102;15.440;2023-02-15T10:31:26;98495.53;;;4.80;100.00
3668;BME280;24099;47.102;15.440;2023-02-15T10:34:05;98490.25;;;4.58;100.00
3668;BME280;24099;47.102;15.440;2023-02-15T10:37:03;98487.88;;;4.55;100.00
3668;BME280;24099;47.102;15.440;2023-02-15T10:39:41;98481.41;;;4.24;100.00
3668;BME280;24099;47.102;15.440;2023-02-15T10:42:23;98472.41;;;5.22;100.00
3668;BME280;24099;47.102;15.440;2023-02-15T10:45:08;98466.78;;;4.58;100.00
3668;BME280;24099;47.102;15.440;2023-02-15T10:47:54;98485.81;;;3.87;100.00
3668;BME280;24099;47.102;15.440;2023-02-15T10:50:33;98462.16;;;4.97;100.00
3668;BME280;24099;47.102;15.440;2023-02-15T10:53:16;98448.22;;;5.65;100.00
3668;BME280;24099;47.102;15.440;2023-02-15T10:55:59;98447.53;;;6.28;100.00
3668;BME280;24099;47.102;15.440;2023-02-15T10:58:43;98441.44;;;5.62;100.00
3668;BME280;24099;47.102;15.440;2023-02-15T11:01:18;98438.34;;;6.45;100.00
3668;BME280;24099;47.102;15.440;2023-02-15T11:04:09;98429.28;;;6.49;100.00
3668;BME280;24099;47.102;15.440;2023-02-15T11:06:44;98426.44;;;7.14;100.00
3668;BME280;24099;47.102;15.440;2023-02-15T11:09:19;98427.03;;;6.12;100.00
3668;BME280;24099;47.102;15.440;2023-02-15T11:11:52;98418.81;;;7.32;100.00
3668;BME280;24099;47.102;15.440;2023-02-15T11:14:27;98415.44;;;7.00;100.00
3668;BME280;24099;47.102;15.440;2023-02-15T11:17:05;98412.66;;;6.91;100.00
3668;BME280;24099;47.102;15.440;2023-02-15T11:19:39;98409.09;;;6.40;100.00
3668;BME280;24099;47.102;15.440;2023-02-15T11:22:10;98407.34;;;7.54;100.00
3668;BME280;24099;47.102;15.440;2023-02-15T11:24:42;98400.81;;;7.79;100.00
3668;BME280;24099;47.102;15.440;2023-02-15T11:27:21;98400.84;;;6.55;100.00
3668;BME280;24099;47.102;15.440;2023-02-15T11:29:57;98394.69;;;7.29;100.00
3668;BME280;24099;47.102;15.440;2023-02-15T11:32:29;98384.66;;;7.83;100.00
3668;BME280;24099;47.102;15.440;2023-02-15T11:35:04;98385.72;;;7.71;100.00
3668;BME280;24099;47.102;15.440;2023-02-15T11:37:42;98377.25;;;8.08;100.00
3668;BME280;24099;47.102;15.440;2023-02-15T11:40:20;98375.03;;;7.93;100.00
3668;BME280;24099;47.102;15.440;2023-02-15T11:42:55;98378.84;;;7.80;100.00
3668;BME280;24099;47.102;15.440;2023-02-15T11:45:28;98370.47;;;8.05;100.00
3668;BME280;24099;47.102;15.440;2023-02-15T11:48:09;98360.13;;;8.23;100.00
3668;BME280;24099;47.102;15.440;2023-02-15T11:50:38;98364.41;;;7.95;100.00
3668;BME280;24099;47.102;15.440;2023-02-15T11:53:12;98364.00;;;8.09;100.00
3668;BME280;24099;47.102;15.440;2023-02-15T11:55:40;98363.91;;;7.61;100.00
3668;BME280;24099;47.102;15.440;2023-02-15T11:58:27;98355.56;;;7.96;100.00
3668;BME280;24099;47.102;15.440;2023-02-15T12:01:00;98352.84;;;8.46;100.00
3668;BME280;24099;47.102;15.440;2023-02-15T12:03:45;98346.34;;;8.11;100.00
3668;BME280;24099;47.102;15.440;2023-02-15T12:06:22;98350.56;;;7.74;100.00
3668;BME280;24099;47.102;15.440;2023-02-15T12:09:00;98346.44;;;7.81;100.00
3668;BME280;24099;47.102;15.440;2023-02-15T12:11:34;98340.78;;;7.85;100.00
3668;BME280;24099;47.102;15.440;2023-02-15T12:14:06;98334.38;;;8.38;100.00
3668;BME280;24099;47.102;15.440;2023-02-15T12:16:42;98329.44;;;7.16;100.00
3668;BME280;24099;47.102;15.440;2023-02-15T12:19:28;98337.56;;;7.63;100.00
3668;BME280;24099;47.102;15.440;2023-02-15T12:21:58;98319.41;;;7.90;100.00
3668;BME280;24099;47.102;15.440;2023-02-15T12:24:30;98329.63;;;7.93;100.00
3668;BME280;24099;47.102;15.440;2023-02-15T12:27:03;98321.06;;;8.29;100.00
3668;BME280;24099;47.102;15.440;2023-02-15T12:29:41;98319.97;;;7.74;100.00
3668;BME280;24099;47.102;15.440;2023-02-15T12:32:11;98316.09;;;7.88;100.00
3668;BME280;24099;47.102;15.440;2023-02-15T12:34:44;98322.72;;;7.82;100.00
3668;BME280;24099;47.102;15.440;2023-02-15T12:37:16;98311.28;;;8.22;100.00
3668;BME280;24099;47.102;15.440;2023-02-15T12:39:55;98312.78;;;7.86;100.00
3668;BME280;24099;47.102;15.440;2023-02-15T12:42:24;98310.47;;;7.92;100.00
3668;BME280;24099;47.102;15.440;2023-02-15T12:44:59;98307.41;;;7.87;100.00
3668;BME280;24099;47.102;15.440;2023-02-15T12:47:28;98309.44;;;8.61;100.00
3668;BME280;24099;47.102;15.440;2023-02-15T12:50:12;98314.97;;;7.71;100.00
3668;BME280;24099;47.102;15.440;2023-02-15T12:52:45;98306.16;;;8.01;100.00
3668;BME280;24099;47.102;15.440;2023-02-15T12:55:21;98312.53;;;8.47;100.00
3668;BME280;24099;47.102;15.440;2023-02-15T12:58:12;98302.53;;;8.60;100.00
3668;BME280;24099;47.102;15.440;2023-02-15T13:00:45;98305.84;;;8.72;100.00
3668;BME280;24099;47.102;15.440;2023-02-15T13:03:18;98313.63;;;8.25;100.00
3668;BME280;24099;47.102;15.440;2023-02-15T13:05:51;98311.00;;;8.54;100.00
3668;BME280;24099;47.102;15.440;2023-02-15T13:08:22;98302.97;;;8.65;100.00
3668;BME280;24099;47.102;15.440;2023-02-15T13:10:56;98299.72;;;8.81;100.00
3668;BME280;24099;47.102;15.440;2023-02-15T13:13:32;98302.03;;;7.89;100.00
3668;BME280;24099;47.102;15.440;2023-02-15T13:16:04;98296.63;;;8.19;100.00
3668;BME280;24099;47.102;15.440;2023-02-15T13:18:37;98293.06;;;8.30;100.00
3668;BME280;24099;47.102;15.440;2023-02-15T13:21:10;98289.91;;;8.36;100.00
3668;BME280;24099;47.102;15.440;2023-02-15T13:23:47;98292.06;;;7.54;100.00
3668;BME280;24099;47.102;15.440;2023-02-15T13:26:18;98281.19;;;8.07;100.00
3668;BME280;24099;47.102;15.440;2023-02-15T13:28:48;98289.19;;;8.24;100.00
3668;BME280;24099;47.102;15.440;2023-02-15T13:31:22;98277.47;;;8.19;100.00
3668;BME280;24099;47.102;15.440;2023-02-15T13:33:54;98274.28;;;8.25;100.00
3668;BME280;24099;47.102;15.440;2023-02-15T13:36:29;98287.56;;;7.16;100.00
3668;BME280;24099;47.102;15.440;2023-02-15T13:39:06;98286.25;;;7.50;100.00